sensor_id;sensor_type;location;lat;lon;timestamp;pressure;altitude;pressure_sealevel;temperature;humidity
55486;BME280;49383;-25.924;28.194;2023-01-31T00:02:03;85441.58;;;24.77;37.56
55486;BME280;49383;-25.924;28.194;2023-01-31T00:04:29;85437.06;;;24.70;37.63
55486;BME280;49383;-25.924;28.194;2023-01-31T00:06:55;85434.30;;;24.67;37.65
55486;BME280;49383;-25.924;28.194;2023-01-31T00:09:21;85435.44;;;24.70;37.60
55486;BME280;49383;-25.924;28.194;2023-01-31T00:11:46;85439.25;;;24.73;37.54
55486;BME280;49383;-25.924;28.194;2023-01-31T00:14:17;85440.49;;;24.76;37.48
55486;BME280;49383;-25.924;28.194;2023-01-31T00:16:38;85436.98;;;24.52;37.49
55486;BME280;49383;-25.924;28.194;2023-01-31T00:19:04;85436.54;;;24.53;37.46
55486;BME280;49383;-25.924;28.194;2023-01-31T00:21:31;85437.61;;;24.32;37.44
55486;BME280;49383;-25.924;28.194;2023-01-31T00:23:56;85439.46;;;24.59;37.38
55486;BME280;49383;-25.924;28.194;2023-01-31T00:26:23;85436.49;;;24.77;37.41
55486;BME280;49383;-25.924;28.194;2023-01-31T00:28:49;85431.59;;;24.72;37.47
55486;BME280;49383;-25.924;28.194;2023-01-31T00:31:14;85426.30;;;24.27;37.45
55486;BME280;49383;-25.924;28.194;2023-01-31T00:33:42;85419.47;;;24.76;37.38
55486;BME280;49383;-25.924;28.194;2023-01-31T00:36:06;85414.72;;;24.79;37.33
55486;BME280;49383;-25.924;28.194;2023-01-31T00:38:31;85413.63;;;24.62;37.54
55486;BME280;49383;-25.924;28.194;2023-01-31T00:40:56;85410.79;;;24.59;37.58
55486;BME280;49383;-25.924;28.194;2023-01-31T00:43:22;85403.47;;;24.57;37.58
55486;BME280;49383;-25.924;28.194;2023-01-31T00:45:48;85395.56;;;24.64;37.48
55486;BME280;49383;-25.924;28.194;2023-01-31T00:48:14;85393.07;;;24.47;37.38
55486;BME280;49383;-25.924;28.194;2023-01-31T00:50:40;85390.78;;;24.65;37.41
55486;BME280;49383;-25.924;28.194;2023-01-31T00:53:05;85386.67;;;24.39;37.44
55486;BME280;49383;-25.924;28.194;2023-01-31T00:55:30;85386.70;;;24.59;37.47
55486;BME280;49383;-25.924;28.194;2023-01-31T00:57:56;85392.36;;;24.39;37.42
55486;BME280;49383;-25.924;28.194;2023-01-31T01:00:22;85396.57;;;24.70;37.30
55486;BME280;49383;-25.924;28.194;2023-01-31T01:02:48;85395.54;;;24.67;37.31
55486;BME280;49383;-25.924;28.194;2023-01-31T01:05:13;85389.69;;;24.63;37.33
55486;BME280;49383;-25.924;28.194;2023-01-31T01:07:39;85386.49;;;24.38;37.37
55486;BME280;49383;-25.924;28.194;2023-01-31T01:10:05;85385.69;;;24.54;37.43
55486;BME280;49383;-25.924;28.194;2023-01-31T01:12:30;85391.56;;;24.59;37.37
55486;BME280;49383;-25.924;28.194;2023-01-31T01:14:56;85397.97;;;24.56;37.38
55486;BME280;49383;-25.924;28.194;2023-01-31T01:17:22;85400.23;;;24.38;37.33
55486;BME280;49383;-25.924;28.194;2023-01-31T01:19:48;85400.00;;;24.43;37.26
55486;BME280;49383;-25.924;28.194;2023-01-31T01:22:13;85399.49;;;24.60;37.32
55486;BME280;49383;-25.924;28.194;2023-01-31T01:24:39;85397.11;;;24.55;37.37
55486;BME280;49383;-25.924;28.194;2023-01-31T01:27:05;85399.61;;;24.56;37.32
55486;BME280;49383;-25.924;28.194;2023-01-31T01:29:31;85401.29;;;24.51;37.37
55486;BME280;49383;-25.924;28.194;2023-01-31T01:31:57;85399.95;;;24.49;37.39
55486;BME280;49383;-25.924;28.194;2023-01-31T01:34:23;85397.42;;;24.55;37.30
55486;BME280;49383;-25.924;28.194;2023-01-31T01:36:48;85400.53;;;24.59;37.24
55486;BME280;49383;-25.924;28.194;2023-01-31T01:39:14;85399.71;;;24.16;37.20
55486;BME280;49383;-25.924;28.194;2023-01-31T01:41:40;85396.96;;;24.60;37.20
55486;BME280;49383;-25.924;28.194;2023-01-31T01:46:35;85389.94;;;24.59;37.17
55486;BME280;49383;-25.924;28.194;2023-01-31T01:49:00;85392.04;;;24.60;37.14
55486;BME280;49383;-25.924;28.194;2023-01-31T01:51:23;85390.66;;;24.50;37.25
55486;BME280;49383;-25.924;28.194;2023-01-31T01:53:51;85391.53;;;24.27;37.25
55486;BME280;49383;-25.924;28.194;2023-01-31T01:56:18;85393.19;;;24.80;37.18
55486;BME280;49383;-25.924;28.194;2023-01-31T01:58:44;85392.15;;;24.59;37.09
55486;BME280;49383;-25.924;28.194;2023-01-31T02:01:07;85390.50;;;24.36;37.08
55486;BME280;49383;-25.924;28.194;2023-01-31T02:03:32;85386.75;;;24.30;37.17
55486;BME280;49383;-25.924;28.194;2023-01-31T02:06:01;85380.19;;;24.23;37.23
55486;BME280;49383;-25.924;28.194;2023-01-31T02:08:26;85377.52;;;24.54;37.12
55486;BME280;49383;-25.924;28.194;2023-01-31T02:10:55;85380.41;;;24.53;37.12
55486;BME280;49383;-25.924;28.194;2023-01-31T02:13:16;85384.83;;;24.59;37.05
55486;BME280;49383;-25.924;28.194;2023-01-31T02:15:41;85379.22;;;24.59;37.02
55486;BME280;49383;-25.924;28.194;2023-01-31T02:18:08;85379.98;;;24.63;36.97
55486;BME280;49383;-25.924;28.194;2023-01-31T02:20:44;85377.54;;;24.36;37.02
55486;BME280;49383;-25.924;28.194;2023-01-31T02:30:24;85385.15;;;24.25;37.09
55486;BME280;49383;-25.924;28.194;2023-01-31T02:32:51;85382.99;;;24.47;37.08
55486;BME280;49383;-25.924;28.194;2023-01-31T02:35:11;85381.96;;;24.23;37.09
55486;BME280;49383;-25.924;28.194;2023-01-31T02:37:40;85382.37;;;24.43;37.10
55486;BME280;49383;-25.924;28.194;2023-01-31T02:40:05;85380.73;;;24.25;37.04
55486;BME280;49383;-25.924;28.194;2023-01-31T02:42:32;85381.89;;;24.45;37.04
55486;BME280;49383;-25.924;28.194;2023-01-31T02:44:53;85385.45;;;24.23;37.04
55486;BME280;49383;-25.924;28.194;2023-01-31T02:47:24;85384.60;;;24.20;37.04
55486;BME280;49383;-25.924;28.194;2023-01-31T02:49:47;85385.22;;;24.47;37.00
55486;BME280;49383;-25.924;28.194;2023-01-31T02:52:15;85384.88;;;24.24;36.98
55486;BME280;49383;-25.924;28.194;2023-01-31T02:54:33;85384.55;;;24.46;36.98
55486;BME280;49383;-25.924;28.194;2023-01-31T02:56:58;85388.91;;;24.47;36.96
55486;BME280;49383;-25.924;28.194;2023-01-31T02:59:25;85393.58;;;24.38;37.04
55486;BME280;49383;-25.924;28.194;2023-01-31T03:01:55;85395.42;;;24.43;36.98
55486;BME280;49383;-25.924;28.194;2023-01-31T03:04:16;85395.55;;;24.24;36.94
55486;BME280;49383;-25.924;28.194;2023-01-31T03:06:51;85396.39;;;24.45;36.95
55486;BME280;49383;-25.924;28.194;2023-01-31T03:09:10;85398.95;;;23.97;36.96
55486;BME280;49383;-25.924;28.194;2023-01-31T03:11:39;85402.64;;;24.42;36.96
55486;BME280;49383;-25.924;28.194;2023-01-31T03:14:05;85408.09;;;24.44;36.94
55486;BME280;49383;-25.924;28.194;2023-01-31T03:16:27;85411.99;;;24.42;36.94
55486;BME280;49383;-25.924;28.194;2023-01-31T03:18:56;85410.59;;;24.36;36.99
55486;BME280;49383;-25.924;28.194;2023-01-31T03:21:19;85410.13;;;24.36;37.00
55486;BME280;49383;-25.924;28.194;2023-01-31T03:23:44;85412.08;;;24.12;37.01
55486;BME280;49383;-25.924;28.194;2023-01-31T03:26:07;85416.08;;;24.24;37.12
55486;BME280;49383;-25.924;28.194;2023-01-31T03:28:35;85421.40;;;24.30;37.07
55486;BME280;49383;-25.924;28.194;2023-01-31T03:31:04;85421.07;;;24.37;36.97
55486;BME280;49383;-25.924;28.194;2023-01-31T03:33:27;85421.93;;;24.30;37.06
55486;BME280;49383;-25.924;28.194;2023-01-31T03:35:54;85419.02;;;24.30;37.04
55486;BME280;49383;-25.924;28.194;2023-01-31T03:38:19;85419.97;;;24.35;36.98
55486;BME280;49383;-25.924;28.194;2023-01-31T03:40:47;85423.62;;;24.22;37.13
55486;BME280;49383;-25.924;28.194;2023-01-31T03:43:14;85430.90;;;24.47;37.17
55486;BME280;49383;-25.924;28.194;2023-01-31T03:45:37;85433.49;;;24.00;37.13
55486;BME280;49383;-25.924;28.194;2023-01-31T03:48:01;85435.35;;;24.19;37.18
55486;BME280;49383;-25.924;28.194;2023-01-31T03:50:28;85436.25;;;24.25;37.10
55486;BME280;49383;-25.924;28.194;2023-01-31T03:52:55;85433.75;;;24.22;37.12
55486;BME280;49383;-25.924;28.194;2023-01-31T03:55:20;85430.06;;;24.44;37.17
55486;BME280;49383;-25.924;28.194;2023-01-31T03:57:48;85429.77;;;24.22;37.12
55486;BME280;49383;-25.924;28.194;2023-01-31T04:00:13;85431.35;;;24.28;37.05
55486;BME280;49383;-25.924;28.194;2023-01-31T04:02:36;85429.86;;;24.29;37.03
55486;BME280;49383;-25.924;28.194;2023-01-31T04:05:06;85427.76;;;24.30;37.01
55486;BME280;49383;-25.924;28.194;2023-01-31T04:07:26;85423.50;;;24.27;37.04
55486;BME280;49383;-25.924;28.194;2023-01-31T04:09:52;85420.18;;;24.04;37.05
55486;BME280;49383;-25.924;28.194;2023-01-31T04:12:18;85416.44;;;24.27;37.03
55486;BME280;49383;-25.924;28.194;2023-01-31T04:14:44;85415.48;;;24.29;37.01
55486;BME280;49383;-25.924;28.194;2023-01-31T04:17:10;85419.28;;;24.23;37.07
55486;BME280;49383;-25.924;28.194;2023-01-31T04:19:38;85420.72;;;24.24;37.06
55486;BME280;49383;-25.924;28.194;2023-01-31T04:22:01;85415.80;;;24.20;37.09
55486;BME280;49383;-25.924;28.194;2023-01-31T04:24:27;85411.93;;;24.11;37.22
55486;BME280;49383;-25.924;28.194;2023-01-31T04:26:53;85407.76;;;24.20;37.10
55486;BME280;49383;-25.924;28.194;2023-01-31T04:29:19;85407.20;;;24.17;37.13
55486;BME280;49383;-25.924;28.194;2023-01-31T04:31:45;85405.77;;;24.01;37.05
55486;BME280;49383;-25.924;28.194;2023-01-31T04:34:10;85404.92;;;24.24;37.05
55486;BME280;49383;-25.924;28.194;2023-01-31T04:36:36;85404.72;;;24.24;37.03
55486;BME280;49383;-25.924;28.194;2023-01-31T04:39:02;85405.77;;;24.27;37.00
55486;BME280;49383;-25.924;28.194;2023-01-31T04:41:28;85406.90;;;24.40;37.14
55486;BME280;49383;-25.924;28.194;2023-01-31T04:43:54;85408.35;;;24.23;37.03
55486;BME280;49383;-25.924;28.194;2023-01-31T04:46:20;85409.91;;;24.19;37.06
55486;BME280;49383;-25.924;28.194;2023-01-31T04:48:45;85415.47;;;24.21;37.06
55486;BME280;49383;-25.924;28.194;2023-01-31T04:51:11;85419.19;;;23.93;37.12
55486;BME280;49383;-25.924;28.194;2023-01-31T04:53:37;85417.57;;;24.13;37.15
55486;BME280;49383;-25.924;28.194;2023-01-31T04:56:03;85417.42;;;24.20;37.07
55486;BME280;49383;-25.924;28.194;2023-01-31T04:58:29;85418.74;;;24.21;37.05
55486;BME280;49383;-25.924;28.194;2023-01-31T05:00:55;85419.55;;;24.18;37.08
55486;BME280;49383;-25.924;28.194;2023-01-31T05:03:20;85422.84;;;24.17;37.09
55486;BME280;49383;-25.924;28.194;2023-01-31T05:05:48;85429.43;;;24.16;37.12
55486;BME280;49383;-25.924;28.194;2023-01-31T05:08:11;85431.98;;;24.19;37.08
55486;BME280;49383;-25.924;28.194;2023-01-31T05:10:39;85437.66;;;24.15;37.14
55486;BME280;49383;-25.924;28.194;2023-01-31T05:13:03;85441.84;;;24.06;37.26
55486;BME280;49383;-25.924;28.194;2023-01-31T05:15:29;85437.52;;;24.14;37.17
55486;BME280;49383;-25.924;28.194;2023-01-31T05:17:55;85433.57;;;24.43;37.14
55486;BME280;49383;-25.924;28.194;2023-01-31T05:20:20;85430.68;;;24.15;37.16
55486;BME280;49383;-25.924;28.194;2023-01-31T05:22:47;85430.27;;;24.23;37.07
55486;BME280;49383;-25.924;28.194;2023-01-31T05:25:12;85426.20;;;24.22;37.09
55486;BME280;49383;-25.924;28.194;2023-01-31T05:27:38;85425.54;;;24.27;37.04
55486;BME280;49383;-25.924;28.194;2023-01-31T05:30:05;85424.04;;;24.28;37.05
55486;BME280;49383;-25.924;28.194;2023-01-31T05:32:30;85415.00;;;24.26;37.06
55486;BME280;49383;-25.924;28.194;2023-01-31T05:34:55;85410.01;;;24.25;37.07
55486;BME280;49383;-25.924;28.194;2023-01-31T05:37:21;85404.33;;;24.23;37.12
55486;BME280;49383;-25.924;28.194;2023-01-31T05:39:47;85400.20;;;24.29;37.05
55486;BME280;49383;-25.924;28.194;2023-01-31T05:42:13;85392.92;;;24.31;37.04
55486;BME280;49383;-25.924;28.194;2023-01-31T05:44:39;85385.51;;;24.25;37.10
55486;BME280;49383;-25.924;28.194;2023-01-31T05:47:05;85383.49;;;24.53;37.09
55486;BME280;49383;-25.924;28.194;2023-01-31T05:49:30;85377.60;;;24.57;37.06
55486;BME280;49383;-25.924;28.194;2023-01-31T05:51:56;85372.55;;;24.36;36.98
55486;BME280;49383;-25.924;28.194;2023-01-31T05:54:22;85366.85;;;24.32;37.04
55486;BME280;49383;-25.924;28.194;2023-01-31T05:56:48;85364.25;;;24.37;37.01
55486;BME280;49383;-25.924;28.194;2023-01-31T05:59:14;85357.34;;;24.34;37.03
55486;BME280;49383;-25.924;28.194;2023-01-31T06:01:38;85350.89;;;24.14;37.03
55486;BME280;49383;-25.924;28.194;2023-01-31T06:04:04;85347.26;;;24.36;37.04
55486;BME280;49383;-25.924;28.194;2023-01-31T06:06:30;85344.85;;;24.39;37.04
55486;BME280;49383;-25.924;28.194;2023-01-31T06:08:56;85339.99;;;24.39;37.06
55486;BME280;49383;-25.924;28.194;2023-01-31T06:11:22;85340.97;;;24.18;37.06
55486;BME280;49383;-25.924;28.194;2023-01-31T06:13:48;85340.01;;;24.46;37.01
55486;BME280;49383;-25.924;28.194;2023-01-31T06:16:13;85339.79;;;24.46;37.02
55486;BME280;49383;-25.924;28.194;2023-01-31T06:18:39;85334.90;;;24.45;37.05
55486;BME280;49383;-25.924;28.194;2023-01-31T06:21:05;85334.33;;;24.84;36.56
55486;BME280;49383;-25.924;28.194;2023-01-31T06:23:31;85334.74;;;24.38;36.88
55486;BME280;49383;-25.924;28.194;2023-01-31T06:25:57;85338.79;;;24.52;36.98
55486;BME280;49383;-25.924;28.194;2023-01-31T06:28:23;85340.51;;;24.78;37.03
55486;BME280;49383;-25.924;28.194;2023-01-31T06:30:49;85343.78;;;24.51;37.03
55486;BME280;49383;-25.924;28.194;2023-01-31T06:33:14;85346.56;;;24.49;37.07
55486;BME280;49383;-25.924;28.194;2023-01-31T06:35:40;85348.86;;;24.42;37.16
55486;BME280;49383;-25.924;28.194;2023-01-31T06:38:07;85349.74;;;24.49;37.07
55486;BME280;49383;-25.924;28.194;2023-01-31T06:40:32;85350.31;;;24.47;37.10
55486;BME280;49383;-25.924;28.194;2023-01-31T06:42:58;85350.75;;;24.52;37.05
55486;BME280;49383;-25.924;28.194;2023-01-31T06:45:23;85349.98;;;24.48;37.08
55486;BME280;49383;-25.924;28.194;2023-01-31T06:47:49;85346.67;;;24.23;37.10
55486;BME280;49383;-25.924;28.194;2023-01-31T06:50:15;85343.56;;;24.27;37.06
55486;BME280;49383;-25.924;28.194;2023-01-31T06:52:41;85338.75;;;24.49;37.06
55486;BME280;49383;-25.924;28.194;2023-01-31T06:55:07;85335.03;;;24.33;36.98
55486;BME280;49383;-25.924;28.194;2023-01-31T06:57:32;85335.12;;;24.53;37.01
55486;BME280;49383;-25.924;28.194;2023-01-31T06:59:58;85334.18;;;24.83;36.96
55486;BME280;49383;-25.924;28.194;2023-01-31T07:02:23;85340.64;;;24.37;36.93
55486;BME280;49383;-25.924;28.194;2023-01-31T07:04:49;85346.37;;;24.63;36.89
55486;BME280;49383;-25.924;28.194;2023-01-31T07:07:15;85347.62;;;24.56;36.97
55486;BME280;49383;-25.924;28.194;2023-01-31T07:09:41;85348.83;;;24.29;37.03
55486;BME280;49383;-25.924;28.194;2023-01-31T07:12:06;85351.34;;;24.58;36.96
55486;BME280;49383;-25.924;28.194;2023-01-31T07:14:32;85354.95;;;24.60;36.94
55486;BME280;49383;-25.924;28.194;2023-01-31T07:16:58;85357.78;;;24.66;36.88
55486;BME280;49383;-25.924;28.194;2023-01-31T07:19:24;85359.95;;;24.68;36.85
55486;BME280;49383;-25.924;28.194;2023-01-31T07:21:50;85365.55;;;24.56;37.01
55486;BME280;49383;-25.924;28.194;2023-01-31T07:24:15;85370.11;;;24.31;37.10
55486;BME280;49383;-25.924;28.194;2023-01-31T07:26:43;85376.15;;;24.53;37.10
55486;BME280;49383;-25.924;28.194;2023-01-31T07:29:07;85382.65;;;24.67;36.96
55486;BME280;49383;-25.924;28.194;2023-01-31T07:31:43;85382.68;;;24.60;36.82
55486;BME280;49383;-25.924;28.194;2023-01-31T07:33:59;85384.98;;;24.81;36.59
55486;BME280;49383;-25.924;28.194;2023-01-31T07:36:24;85386.88;;;24.93;36.19
55486;BME280;49383;-25.924;28.194;2023-01-31T07:38:51;85383.52;;;25.19;35.89
55486;BME280;49383;-25.924;28.194;2023-01-31T07:41:15;85383.54;;;25.43;35.65
55486;BME280;49383;-25.924;28.194;2023-01-31T07:43:41;85382.72;;;25.38;35.42
55486;BME280;49383;-25.924;28.194;2023-01-31T07:46:07;85384.73;;;25.59;35.20
55486;BME280;49383;-25.924;28.194;2023-01-31T07:48:32;85386.70;;;25.61;34.93
55486;BME280;49383;-25.924;28.194;2023-01-31T07:51:00;85380.74;;;26.23;34.49
55486;BME280;49383;-25.924;28.194;2023-01-31T07:53:25;85380.79;;;26.05;34.45
55486;BME280;49383;-25.924;28.194;2023-01-31T07:55:50;85375.60;;;25.84;34.42
55486;BME280;49383;-25.924;28.194;2023-01-31T07:58:16;85371.78;;;26.07;34.19
55486;BME280;49383;-25.924;28.194;2023-01-31T08:00:42;85368.86;;;26.14;33.88
55486;BME280;49383;-25.924;28.194;2023-01-31T08:03:22;85362.44;;;26.22;33.81
55486;BME280;49383;-25.924;28.194;2023-01-31T08:05:33;85363.53;;;26.23;33.79
55486;BME280;49383;-25.924;28.194;2023-01-31T08:07:59;85370.21;;;26.59;33.68
55486;BME280;49383;-25.924;28.194;2023-01-31T08:10:24;85367.62;;;26.37;33.68
55486;BME280;49383;-25.924;28.194;2023-01-31T08:12:50;85370.87;;;26.60;33.48
55486;BME280;49383;-25.924;28.194;2023-01-31T08:15:16;85370.19;;;26.47;33.64
55486;BME280;49383;-25.924;28.194;2023-01-31T08:17:42;85367.75;;;26.66;33.45
55486;BME280;49383;-25.924;28.194;2023-01-31T08:20:08;85366.84;;;26.48;33.67
55486;BME280;49383;-25.924;28.194;2023-01-31T08:22:33;85364.34;;;26.63;33.50
55486;BME280;49383;-25.924;28.194;2023-01-31T08:24:59;85365.62;;;26.77;33.40
55486;BME280;49383;-25.924;28.194;2023-01-31T08:27:25;85359.32;;;26.73;33.47
55486;BME280;49383;-25.924;28.194;2023-01-31T08:29:50;85355.09;;;26.80;33.41
55486;BME280;49383;-25.924;28.194;2023-01-31T08:32:16;85355.12;;;26.86;33.37
55486;BME280;49383;-25.924;28.194;2023-01-31T08:34:42;85355.56;;;26.94;33.32
55486;BME280;49383;-25.924;28.194;2023-01-31T08:37:08;85354.61;;;26.86;33.17
55486;BME280;49383;-25.924;28.194;2023-01-31T08:39:33;85356.53;;;26.80;33.26
55486;BME280;49383;-25.924;28.194;2023-01-31T08:41:59;85359.90;;;26.94;33.37
55486;BME280;49383;-25.924;28.194;2023-01-31T08:44:25;85356.84;;;27.03;33.29
55486;BME280;49383;-25.924;28.194;2023-01-31T08:46:51;85355.60;;;27.13;33.21
55486;BME280;49383;-25.924;28.194;2023-01-31T08:49:17;85350.56;;;27.03;33.34
55486;BME280;49383;-25.924;28.194;2023-01-31T08:51:42;85351.91;;;27.04;33.34
55486;BME280;49383;-25.924;28.194;2023-01-31T08:54:08;85351.34;;;26.88;33.52
55486;BME280;49383;-25.924;28.194;2023-01-31T08:56:34;85350.39;;;26.94;33.48
55486;BME280;49383;-25.924;28.194;2023-01-31T08:59:00;85345.44;;;26.97;33.46
55486;BME280;49383;-25.924;28.194;2023-01-31T09:01:25;85345.92;;;26.94;33.73
55486;BME280;49383;-25.924;28.194;2023-01-31T09:03:51;85346.97;;;26.69;33.80
55486;BME280;49383;-25.924;28.194;2023-01-31T09:06:19;85340.01;;;26.63;33.87
55486;BME280;49383;-25.924;28.194;2023-01-31T09:08:43;85345.01;;;26.56;33.97
55486;BME280;49383;-25.924;28.194;2023-01-31T09:11:09;85347.38;;;26.78;34.01
55486;BME280;49383;-25.924;28.194;2023-01-31T09:13:35;85344.98;;;26.86;34.24
55486;BME280;49383;-25.924;28.194;2023-01-31T09:16:01;85349.40;;;26.65;34.20
55486;BME280;49383;-25.924;28.194;2023-01-31T09:18:26;85349.40;;;26.34;34.54
55486;BME280;49383;-25.924;28.194;2023-01-31T09:20:52;85351.56;;;26.43;34.76
55486;BME280;49383;-25.924;28.194;2023-01-31T09:23:18;85351.39;;;26.25;34.97
55486;BME280;49383;-25.924;28.194;2023-01-31T09:25:43;85351.40;;;25.94;35.05
55486;BME280;49383;-25.924;28.194;2023-01-31T09:28:09;85352.61;;;26.30;35.23
55486;BME280;49383;-25.924;28.194;2023-01-31T09:30:35;85343.21;;;26.04;35.26
55486;BME280;49383;-25.924;28.194;2023-01-31T09:33:00;85345.23;;;25.95;35.39
55486;BME280;49383;-25.924;28.194;2023-01-31T09:35:26;85346.71;;;25.85;35.53
55486;BME280;49383;-25.924;28.194;2023-01-31T09:37:52;85348.84;;;25.98;35.63
55486;BME280;49383;-25.924;28.194;2023-01-31T09:40:21;85355.90;;;25.57;35.86
55486;BME280;49383;-25.924;28.194;2023-01-31T09:42:44;85355.65;;;25.76;35.92
55486;BME280;49383;-25.924;28.194;2023-01-31T09:45:13;85352.21;;;25.70;36.01
55486;BME280;49383;-25.924;28.194;2023-01-31T09:47:38;85351.76;;;25.79;36.19
55486;BME280;49383;-25.924;28.194;2023-01-31T09:50:05;85349.53;;;25.60;36.14
55486;BME280;49383;-25.924;28.194;2023-01-31T09:52:27;85354.08;;;25.77;36.24
55486;BME280;49383;-25.924;28.194;2023-01-31T09:54:52;85351.02;;;25.67;36.34
55486;BME280;49383;-25.924;28.194;2023-01-31T09:57:24;85348.20;;;25.66;36.37
55486;BME280;49383;-25.924;28.194;2023-01-31T09:59:48;85346.76;;;25.32;36.47
55486;BME280;49383;-25.924;28.194;2023-01-31T10:04:42;85344.79;;;25.70;36.35
55486;BME280;49383;-25.924;28.194;2023-01-31T10:07:05;85348.49;;;25.63;36.45
55486;BME280;49383;-25.924;28.194;2023-01-31T10:09:32;85345.46;;;25.66;36.42
55486;BME280;49383;-25.924;28.194;2023-01-31T10:11:56;85341.97;;;25.65;36.43
55486;BME280;49383;-25.924;28.194;2023-01-31T10:14:25;85341.50;;;26.03;36.53
55486;BME280;49383;-25.924;28.194;2023-01-31T10:16:52;85340.16;;;25.57;36.55
55486;BME280;49383;-25.924;28.194;2023-01-31T10:19:13;85338.04;;;25.60;36.53
55486;BME280;49383;-25.924;28.194;2023-01-31T10:21:40;85335.17;;;25.64;36.49
55486;BME280;49383;-25.924;28.194;2023-01-31T10:24:05;85336.29;;;25.56;36.58
55486;BME280;49383;-25.924;28.194;2023-01-31T10:26:29;85335.66;;;25.61;36.53
55486;BME280;49383;-25.924;28.194;2023-01-31T10:28:58;85338.70;;;25.64;36.51
55486;BME280;49383;-25.924;28.194;2023-01-31T10:31:26;85336.11;;;25.35;36.56
55486;BME280;49383;-25.924;28.194;2023-01-31T10:33:49;85337.70;;;25.30;36.61
55486;BME280;49383;-25.924;28.194;2023-01-31T10:36:14;85333.32;;;25.56;36.64
55486;BME280;49383;-25.924;28.194;2023-01-31T10:38:38;85330.75;;;25.58;36.63
55486;BME280;49383;-25.924;28.194;2023-01-31T10:41:10;85328.35;;;25.55;36.65
55486;BME280;49383;-25.924;28.194;2023-01-31T10:43:35;85324.73;;;25.56;36.66
55486;BME280;49383;-25.924;28.194;2023-01-31T10:45:53;85324.14;;;25.48;36.77
55486;BME280;49383;-25.924;28.194;2023-01-31T10:48:20;85326.39;;;25.55;36.71
55486;BME280;49383;-25.924;28.194;2023-01-31T10:50:57;85323.94;;;25.62;36.62
55486;BME280;49383;-25.924;28.194;2023-01-31T10:53:23;85319.97;;;25.54;36.72
55486;BME280;49383;-25.924;28.194;2023-01-31T10:55:49;85321.32;;;25.52;36.76
55486;BME280;49383;-25.924;28.194;2023-01-31T10:58:02;85311.52;;;25.56;36.73
55486;BME280;49383;-25.924;28.194;2023-01-31T11:00:31;85306.58;;;25.48;36.83
55486;BME280;49383;-25.924;28.194;2023-01-31T11:02:54;85312.99;;;25.52;36.79
55486;BME280;49383;-25.924;28.194;2023-01-31T11:05:22;85310.25;;;25.51;36.80
55486;BME280;49383;-25.924;28.194;2023-01-31T11:07:46;85311.51;;;25.44;36.90
55486;BME280;49383;-25.924;28.194;2023-01-31T11:12:42;85295.34;;;25.57;36.75
55486;BME280;49383;-25.924;28.194;2023-01-31T11:15:06;85289.18;;;25.60;36.71
55486;BME280;49383;-25.924;28.194;2023-01-31T11:17:28;85292.93;;;25.61;36.71
55486;BME280;49383;-25.924;28.194;2023-01-31T11:19:55;85298.61;;;25.60;36.72
55486;BME280;49383;-25.924;28.194;2023-01-31T11:22:23;85293.65;;;25.58;36.76
55486;BME280;49383;-25.924;28.194;2023-01-31T11:24:47;85292.64;;;25.58;36.77
55486;BME280;49383;-25.924;28.194;2023-01-31T11:27:19;85295.71;;;25.52;36.84
55486;BME280;49383;-25.924;28.194;2023-01-31T11:29:39;85296.96;;;25.52;36.85
55486;BME280;49383;-25.924;28.194;2023-01-31T11:32:05;85293.78;;;25.43;36.96
55486;BME280;49383;-25.924;28.194;2023-01-31T11:34:29;85288.85;;;25.64;36.99
55486;BME280;49383;-25.924;28.194;2023-01-31T11:37:06;85289.19;;;25.46;36.95
55486;BME280;49383;-25.924;28.194;2023-01-31T11:39:27;85286.55;;;25.52;36.89
55486;BME280;49383;-25.924;28.194;2023-01-31T11:41:48;85286.92;;;25.42;36.99
55486;BME280;49383;-25.924;28.194;2023-01-31T11:44:14;85277.27;;;25.54;36.86
55486;BME280;49383;-25.924;28.194;2023-01-31T11:46:46;85275.52;;;25.50;36.91
55486;BME280;49383;-25.924;28.194;2023-01-31T11:49:10;85279.91;;;25.46;36.96
55486;BME280;49383;-25.924;28.194;2023-01-31T11:51:30;85276.76;;;25.23;36.91
55486;BME280;49383;-25.924;28.194;2023-01-31T11:53:55;85279.77;;;25.60;36.78
55486;BME280;49383;-25.924;28.194;2023-01-31T11:56:23;85272.66;;;25.33;36.78
55486;BME280;49383;-25.924;28.194;2023-01-31T11:58:47;85270.64;;;26.07;36.75
55486;BME280;49383;-25.924;28.194;2023-01-31T12:01:15;85265.61;;;26.02;36.81
55486;BME280;49383;-25.924;28.194;2023-01-31T12:03:38;85260.41;;;25.44;36.99
55486;BME280;49383;-25.924;28.194;2023-01-31T12:06:05;85254.70;;;25.39;37.04
55486;BME280;49383;-25.924;28.194;2023-01-31T12:08:31;85244.07;;;25.46;36.97
55486;BME280;49383;-25.924;28.194;2023-01-31T12:10:54;85245.97;;;25.45;36.97
55486;BME280;49383;-25.924;28.194;2023-01-31T12:13:21;85242.20;;;25.73;36.90
55486;BME280;49383;-25.924;28.194;2023-01-31T12:15:50;85235.86;;;25.43;37.01
55486;BME280;49383;-25.924;28.194;2023-01-31T12:18:11;85235.19;;;25.53;36.88
55486;BME280;49383;-25.924;28.194;2023-01-31T12:20:41;85229.89;;;25.17;36.99
55486;BME280;49383;-25.924;28.194;2023-01-31T12:23:16;85224.24;;;25.18;37.00
55486;BME280;49383;-25.924;28.194;2023-01-31T12:25:39;85217.30;;;25.47;36.95
55486;BME280;49383;-25.924;28.194;2023-01-31T12:28:02;85211.59;;;25.48;36.94
55486;BME280;49383;-25.924;28.194;2023-01-31T12:30:26;85206.85;;;25.99;36.85
55486;BME280;49383;-25.924;28.194;2023-01-31T12:32:58;85205.77;;;25.40;37.03
55486;BME280;49383;-25.924;28.194;2023-01-31T12:35:24;85205.26;;;25.50;36.91
55486;BME280;49383;-25.924;28.194;2023-01-31T12:37:45;85200.03;;;25.47;36.94
55486;BME280;49383;-25.924;28.194;2023-01-31T12:40:17;85196.60;;;25.49;36.91
55486;BME280;49383;-25.924;28.194;2023-01-31T12:42:39;85194.32;;;25.53;36.86
55486;BME280;49383;-25.924;28.194;2023-01-31T12:45:02;85187.19;;;25.10;37.06
55486;BME280;49383;-25.924;28.194;2023-01-31T12:47:29;85182.42;;;25.43;36.98